Time;durP1;ratioP1;P1;durP2;ratioP2;P2;SDS_P1;SDS_P2;PMS_P1;PMS_P2;Temp;Humidity;BMP_temperature;BMP_pressure;BME280_temperature;BME280_humidity;BME280_pressure;Samples;Min_cycle;Max_cycle;Signal;HPM_P1;HPM_P2
2023/05/18 00:00:00;;;;;;;0.00;0.00;;;;;;;;;;5083091;28;20150;-83
2023/05/18 00:02:28;;;;;;;0.00;0.00;;;;;;;;;;5087120;28;20051;-82
2023/05/18 00:04:53;;;;;;;0.00;0.00;;;;;;;;;;5079772;28;20043;-84
2023/05/18 00:07:19;;;;;;;0.00;0.00;;;;;;;;;;5089177;28;20395;-86
2023/05/18 00:09:44;;;;;;;0.00;0.00;;;;;;;;;;5084525;28;20087;-85
2023/05/18 00:12:10;;;;;;;0.00;0.00;;;;;;;;;;5090216;28;20577;-85
2023/05/18 00:14:35;;;;;;;0.00;0.00;;;;;;;;;;5072339;28;20028;-85
2023/05/18 00:17:01;;;;;;;0.00;0.00;;;;;;;;;;5079203;28;20111;-86
2023/05/18 00:19:28;;;;;;;0.00;0.00;;;;;;;;;;5110276;28;20031;-83
2023/05/18 00:21:54;;;;;;;0.00;0.00;;;;;;;;;;5081958;28;20481;-83
2023/05/18 00:24:20;;;;;;;0.00;0.00;;;;;;;;;;5076550;28;20024;-85
2023/05/18 00:26:48;;;;;;;0.00;0.00;;;;;;;;;;5088545;28;20035;-83
2023/05/18 00:29:14;;;;;;;0.00;0.00;;;;;;;;;;5092490;28;20035;-86
2023/05/18 00:31:40;;;;;;;0.00;0.00;;;;;;;;;;5086996;28;20479;-84
2023/05/18 00:34:12;;;;;;;0.00;0.00;;;;;;;;;;5085085;28;20483;-84
2023/05/18 00:36:38;;;;;;;0.00;0.00;;;;;;;;;;5077852;28;22535;-84
2023/05/18 00:39:05;;;;;;;0.00;0.00;;;;;;;;;;5084344;28;20055;-83
2023/05/18 00:41:34;;;;;;;0.00;0.00;;;;;;;;;;5077314;28;20051;-86
2023/05/18 00:44:00;;;;;;;0.00;0.00;;;;;;;;;;5087301;28;20092;-84
2023/05/18 00:46:27;;;;;;;0.00;0.00;;;;;;;;;;5093878;28;20052;-84
2023/05/18 00:49:00;;;;;;;0.00;0.00;;;;;;;;;;5088617;28;20021;-86
2023/05/18 00:51:26;;;;;;;0.00;0.00;;;;;;;;;;5084874;28;20017;-85
2023/05/18 00:53:53;;;;;;;0.00;0.00;;;;;;;;;;5085774;28;20028;-86
2023/05/18 00:56:22;;;;;;;0.00;0.00;;;;;;;;;;5088621;28;20028;-86
2023/05/18 00:58:50;;;;;;;0.00;0.00;;;;;;;;;;5083916;28;20035;-85
2023/05/18 01:01:18;;;;;;;0.00;0.00;;;;;;;;;;5095519;28;20043;-86
2023/05/18 01:03:43;;;;;;;0.00;0.00;;;;;;;;;;5089112;28;20941;-86
2023/05/18 01:06:13;;;;;;;0.00;0.00;;;;;;;;;;5083978;28;20028;-85
2023/05/18 01:08:40;;;;;;;0.00;0.00;;;;;;;;;;5077125;28;20412;-86
2023/05/18 01:11:31;;;;;;;0.00;0.00;;;;;;;;;;5083154;28;20024;-81
2023/05/18 01:14:41;;;;;;;0.00;0.00;;;;;;;;;;5080938;28;20040;-85
2023/05/18 01:17:38;;;;;;;0.00;0.00;;;;;;;;;;5081940;28;20036;-86
2023/05/18 01:20:21;;;;;;;0.00;0.00;;;;;;;;;;5081034;28;20028;-85
2023/05/18 01:23:28;;;;;;;0.00;0.00;;;;;;;;;;5077023;28;20119;-84
2023/05/18 01:25:54;;;;;;;0.00;0.00;;;;;;;;;;5084019;28;20479;-84
2023/05/18 01:28:26;;;;;;;0.00;0.00;;;;;;;;;;5077550;28;20112;-84
2023/05/18 01:30:53;;;;;;;0.03;0.03;;;;;;;;;;5082960;28;20121;-84
2023/05/18 01:33:23;;;;;;;0.00;0.00;;;;;;;;;;5088388;28;20020;-85
2023/05/18 01:35:48;;;;;;;0.03;0.03;;;;;;;;;;5077656;28;20468;-83
2023/05/18 01:38:21;;;;;;;0.00;0.00;;;;;;;;;;5078711;28;20023;-83
2023/05/18 01:41:01;;;;;;;0.00;0.00;;;;;;;;;;5086362;28;20400;-85
2023/05/18 01:43:41;;;;;;;0.00;0.00;;;;;;;;;;5082262;28;20023;-85
2023/05/18 01:46:29;;;;;;;0.00;0.00;;;;;;;;;;5081499;28;20051;-86
2023/05/18 01:49:00;;;;;;;0.00;0.00;;;;;;;;;;5078433;28;20036;-85
2023/05/18 01:51:31;;;;;;;0.00;0.00;;;;;;;;;;5089319;28;20024;-84
2023/05/18 01:54:03;;;;;;;0.00;0.00;;;;;;;;;;5080152;28;20107;-84
2023/05/18 01:56:31;;;;;;;0.00;0.00;;;;;;;;;;5073703;28;20028;-86
2023/05/18 01:59:00;;;;;;;0.00;0.00;;;;;;;;;;5077708;28;20028;-85
2023/05/18 02:01:26;;;;;;;0.00;0.00;;;;;;;;;;5074094;28;20097;-86
2023/05/18 02:03:51;;;;;;;0.00;0.00;;;;;;;;;;5082276;28;20468;-86
2023/05/18 02:06:17;;;;;;;0.00;0.00;;;;;;;;;;5086022;28;20020;-86
2023/05/18 02:08:42;;;;;;;0.00;0.00;;;;;;;;;;5083444;28;20016;-87
2023/05/18 02:11:08;;;;;;;0.00;0.00;;;;;;;;;;5091341;28;20039;-86
2023/05/18 02:13:34;;;;;;;0.00;0.00;;;;;;;;;;5084779;28;20024;-87
2023/05/18 02:15:59;;;;;;;0.00;0.00;;;;;;;;;;5086792;28;20035;-86
2023/05/18 02:18:25;;;;;;;0.00;0.00;;;;;;;;;;5081288;28;20431;-86
2023/05/18 02:20:58;;;;;;;0.00;0.00;;;;;;;;;;5088153;28;20597;-87
2023/05/18 02:23:26;;;;;;;0.00;0.00;;;;;;;;;;5075686;28;20095;-86
2023/05/18 02:25:55;;;;;;;0.00;0.00;;;;;;;;;;5078111;28;20111;-87
2023/05/18 02:28:21;;;;;;;0.00;0.00;;;;;;;;;;5082506;28;20028;-86
2023/05/18 02:30:46;;;;;;;0.00;0.00;;;;;;;;;;5078978;28;20040;-86
2023/05/18 02:33:16;;;;;;;0.00;0.00;;;;;;;;;;5080606;28;20028;-87
2023/05/18 02:35:42;;;;;;;0.00;0.00;;;;;;;;;;5077612;28;21112;-86
2023/05/18 02:38:10;;;;;;;0.00;0.00;;;;;;;;;;5116361;27;20032;-86
2023/05/18 02:40:36;;;;;;;0.00;0.00;;;;;;;;;;5074493;28;20548;-85
2023/05/18 02:43:01;;;;;;;0.00;0.00;;;;;;;;;;5116565;27;20527;-86
2023/05/18 02:45:27;;;;;;;0.00;0.00;;;;;;;;;;5074903;28;20063;-86
2023/05/18 02:48:02;;;;;;;0.00;0.00;;;;;;;;;;5077398;28;20103;-88
2023/05/18 02:50:27;;;;;;;0.00;0.00;;;;;;;;;;5084856;28;20430;-87
2023/05/18 02:53:01;;;;;;;0.00;0.00;;;;;;;;;;5080642;28;20149;-86
2023/05/18 02:55:33;;;;;;;0.00;0.00;;;;;;;;;;5080585;28;20077;-87
2023/05/18 02:58:04;;;;;;;0.00;0.00;;;;;;;;;;5084269;28;20476;-86
2023/05/18 03:00:30;;;;;;;0.00;0.00;;;;;;;;;;5078105;28;20111;-88
2023/05/18 03:02:59;;;;;;;0.00;0.00;;;;;;;;;;5083842;28;20064;-86
2023/05/18 03:05:25;;;;;;;0.00;0.00;;;;;;;;;;5085090;28;20410;-85
2023/05/18 03:07:53;;;;;;;0.00;0.00;;;;;;;;;;5079292;28;20031;-86
2023/05/18 03:10:19;;;;;;;0.00;0.00;;;;;;;;;;5077773;28;20048;-85
2023/05/18 03:12:54;;;;;;;0.00;0.00;;;;;;;;;;5079390;28;20074;-86
2023/05/18 03:15:22;;;;;;;0.10;0.10;;;;;;;;;;5083480;28;20016;-86
2023/05/18 03:17:48;;;;;;;0.00;0.00;;;;;;;;;;5077652;28;20031;-85
2023/05/18 03:20:14;;;;;;;0.00;0.00;;;;;;;;;;5087970;28;20387;-86
2023/05/18 03:22:40;;;;;;;0.00;0.00;;;;;;;;;;5086317;28;20024;-86
2023/05/18 03:25:06;;;;;;;0.00;0.00;;;;;;;;;;5079031;28;20027;-84
2023/05/18 03:27:36;;;;;;;0.00;0.00;;;;;;;;;;5082387;28;20079;-85
2023/05/18 03:30:02;;;;;;;;;;;;;;;;;;5080532;28;20047;-85
2023/05/18 03:32:30;;;;;;;0.00;0.00;;;;;;;;;;5080314;28;20379;-85
2023/05/18 03:34:56;;;;;;;0.00;0.00;;;;;;;;;;5084025;28;20460;-86
2023/05/18 03:37:21;;;;;;;0.00;0.00;;;;;;;;;;5078125;28;20031;-84
2023/05/18 03:39:47;;;;;;;0.00;0.00;;;;;;;;;;5077513;28;20427;-85
2023/05/18 03:42:15;;;;;;;0.00;0.00;;;;;;;;;;5081817;28;20063;-86
2023/05/18 03:44:41;;;;;;;0.00;0.00;;;;;;;;;;5082216;28;20105;-84
2023/05/18 03:47:06;;;;;;;0.05;0.05;;;;;;;;;;5075649;28;20028;-84
2023/05/18 03:49:33;;;;;;;0.00;0.00;;;;;;;;;;5078396;28;20059;-82
2023/05/18 03:51:59;;;;;;;0.00;0.00;;;;;;;;;;5082768;28;20020;-84
2023/05/18 03:54:25;;;;;;;0.00;0.00;;;;;;;;;;5076686;28;20020;-83
2023/05/18 03:56:53;;;;;;;0.00;0.00;;;;;;;;;;5074010;28;20024;-84
2023/05/18 03:59:18;;;;;;;0.00;0.00;;;;;;;;;;5082731;28;20032;-83
2023/05/18 04:01:44;;;;;;;0.00;0.00;;;;;;;;;;5077866;28;20039;-85
2023/05/18 04:04:16;;;;;;;0.00;0.00;;;;;;;;;;5077895;28;20380;-85
2023/05/18 04:06:45;;;;;;;0.00;0.00;;;;;;;;;;5080052;28;20100;-86
2023/05/18 04:09:16;;;;;;;0.00;0.00;;;;;;;;;;5077964;28;20032;-85
2023/05/18 04:11:59;;;;;;;0.00;0.00;;;;;;;;;;5075939;28;20280;-86
2023/05/18 04:14:26;;;;;;;0.00;0.00;;;;;;;;;;5084673;28;20083;-83
2023/05/18 04:16:53;;;;;;;0.00;0.00;;;;;;;;;;5076239;28;20209;-85
2023/05/18 04:19:21;;;;;;;0.03;0.03;;;;;;;;;;5087105;28;20028;-86
2023/05/18 04:21:47;;;;;;;0.00;0.00;;;;;;;;;;5082678;28;20017;-85
2023/05/18 04:24:15;;;;;;;0.00;0.00;;;;;;;;;;5079201;28;20458;-83
2023/05/18 04:26:41;;;;;;;0.00;0.00;;;;;;;;;;5079643;28;20516;-86
2023/05/18 04:29:09;;;;;;;0.00;0.00;;;;;;;;;;5087743;28;20028;-85
2023/05/18 04:31:36;;;;;;;0.00;0.00;;;;;;;;;;5084507;28;20034;-84
2023/05/18 04:34:02;;;;;;;0.00;0.00;;;;;;;;;;5080728;28;20078;-86
2023/05/18 04:36:29;;;;;;;0.00;0.00;;;;;;;;;;5088417;28;20020;-86
2023/05/18 04:38:57;;;;;;;0.00;0.00;;;;;;;;;;5081010;28;20055;-85
2023/05/18 04:41:24;;;;;;;0.00;0.00;;;;;;;;;;5089163;28;20112;-86
2023/05/18 04:43:50;;;;;;;0.30;0.30;;;;;;;;;;5079478;28;20472;-86
2023/05/18 04:46:15;;;;;;;0.00;0.00;;;;;;;;;;5078348;28;20019;-85
2023/05/18 04:48:41;;;;;;;0.00;0.00;;;;;;;;;;5089188;28;20110;-84
2023/05/18 04:51:07;;;;;;;0.00;0.00;;;;;;;;;;5081181;28;20039;-86
2023/05/18 04:53:33;;;;;;;0.10;0.10;;;;;;;;;;5085579;28;20017;-85
2023/05/18 04:56:01;;;;;;;0.00;0.00;;;;;;;;;;5085227;28;20027;-87
2023/05/18 04:58:27;;;;;;;0.03;0.03;;;;;;;;;;5082290;28;20056;-86
2023/05/18 05:00:53;;;;;;;0.00;0.00;;;;;;;;;;5089624;28;20442;-87
2023/05/18 05:03:18;;;;;;;0.00;0.00;;;;;;;;;;5079637;28;20024;-86
2023/05/18 05:05:43;;;;;;;0.10;0.10;;;;;;;;;;5081785;28;20029;-86
2023/05/18 05:08:09;;;;;;;0.00;0.00;;;;;;;;;;5085615;28;20028;-86
2023/05/18 05:10:34;;;;;;;0.00;0.00;;;;;;;;;;5083522;28;20032;-86
2023/05/18 05:13:00;;;;;;;0.00;0.00;;;;;;;;;;5079067;28;20024;-89
2023/05/18 05:15:26;;;;;;;0.03;0.03;;;;;;;;;;5081443;28;20403;-89
2023/05/18 05:17:51;;;;;;;0.00;0.00;;;;;;;;;;5084599;28;20388;-89
2023/05/18 05:20:17;;;;;;;0.00;0.00;;;;;;;;;;5075177;28;20055;-89
2023/05/18 05:22:42;;;;;;;0.00;0.00;;;;;;;;;;5083101;28;20016;-86
2023/05/18 05:25:08;;;;;;;0.00;0.00;;;;;;;;;;5081624;28;20036;-87
2023/05/18 05:27:33;;;;;;;0.05;0.05;;;;;;;;;;5078474;28;20040;-84
2023/05/18 05:29:59;;;;;;;0.00;0.00;;;;;;;;;;5087953;28;20414;-85
2023/05/18 05:32:24;;;;;;;0.00;0.00;;;;;;;;;;5077380;28;20059;-86
2023/05/18 05:34:50;;;;;;;0.10;0.10;;;;;;;;;;5107256;27;20032;-85
2023/05/18 05:37:16;;;;;;;0.00;0.00;;;;;;;;;;5080797;28;20081;-85
2023/05/18 05:39:42;;;;;;;0.00;0.00;;;;;;;;;;5075020;28;20044;-83
2023/05/18 05:42:08;;;;;;;0.00;0.00;;;;;;;;;;5080447;28;20068;-83
2023/05/18 05:44:34;;;;;;;0.00;0.00;;;;;;;;;;5078597;28;20040;-83
2023/05/18 05:47:00;;;;;;;0.00;0.00;;;;;;;;;;5082830;28;20469;-83
2023/05/18 05:49:25;;;;;;;0.00;0.00;;;;;;;;;;5081632;28;20066;-83
2023/05/18 05:51:51;;;;;;;0.00;0.00;;;;;;;;;;5085158;28;20034;-83
2023/05/18 05:54:17;;;;;;;0.00;0.00;;;;;;;;;;5083607;28;20107;-83
2023/05/18 05:56:42;;;;;;;0.00;0.00;;;;;;;;;;5079444;28;20099;-82
2023/05/18 05:59:07;;;;;;;0.00;0.00;;;;;;;;;;5077274;28;20021;-82
2023/05/18 06:01:33;;;;;;;0.00;0.00;;;;;;;;;;5079567;28;20027;-82
2023/05/18 06:04:00;;;;;;;0.00;0.00;;;;;;;;;;5075274;28;20491;-83
2023/05/18 06:06:26;;;;;;;0.43;0.20;;;;;;;;;;5078315;28;20049;-81
2023/05/18 06:08:51;;;;;;;0.00;0.00;;;;;;;;;;5082583;28;20085;-81
2023/05/18 06:11:17;;;;;;;0.00;0.00;;;;;;;;;;5067615;28;20032;-81
2023/05/18 06:13:42;;;;;;;0.00;0.00;;;;;;;;;;5074206;28;20027;-82
2023/05/18 06:16:07;;;;;;;0.00;0.00;;;;;;;;;;5074061;28;20025;-81
2023/05/18 06:18:33;;;;;;;0.00;0.00;;;;;;;;;;5076383;28;20021;-81
2023/05/18 06:20:59;;;;;;;0.00;0.00;;;;;;;;;;5079196;28;20055;-82
2023/05/18 06:23:24;;;;;;;0.00;0.00;;;;;;;;;;5071211;28;20545;-83
2023/05/18 06:25:50;;;;;;;0.00;0.00;;;;;;;;;;5080385;28;20028;-83
2023/05/18 06:28:16;;;;;;;0.00;0.00;;;;;;;;;;5071578;28;20024;-82
2023/05/18 06:30:41;;;;;;;0.00;0.00;;;;;;;;;;5065346;28;20036;-83
2023/05/18 06:33:07;;;;;;;0.00;0.00;;;;;;;;;;5075422;28;20062;-82
2023/05/18 06:35:33;;;;;;;0.00;0.00;;;;;;;;;;5072125;28;20041;-82
2023/05/18 06:37:58;;;;;;;0.00;0.00;;;;;;;;;;5073914;28;20021;-86
2023/05/18 06:40:24;;;;;;;0.00;0.00;;;;;;;;;;5079211;28;20613;-81
2023/05/18 06:42:49;;;;;;;0.00;0.00;;;;;;;;;;5084481;28;20113;-83
2023/05/18 06:45:15;;;;;;;0.03;0.03;;;;;;;;;;5076131;28;20059;-85
2023/05/18 06:47:41;;;;;;;0.00;0.00;;;;;;;;;;5077942;28;20024;-85
2023/05/18 06:50:08;;;;;;;0.00;0.00;;;;;;;;;;5076697;28;20025;-84
2023/05/18 06:52:33;;;;;;;0.00;0.00;;;;;;;;;;5075205;28;20093;-83
2023/05/18 06:55:00;;;;;;;0.00;0.00;;;;;;;;;;5076993;28;20032;-84
2023/05/18 06:57:25;;;;;;;0.00;0.00;;;;;;;;;;5077339;28;20111;-84
2023/05/18 06:59:52;;;;;;;0.00;0.00;;;;;;;;;;5077091;28;20111;-83
2023/05/18 07:02:19;;;;;;;0.03;0.03;;;;;;;;;;5077268;28;20531;-83
2023/05/18 07:04:46;;;;;;;0.00;0.00;;;;;;;;;;5077200;28;20449;-84
2023/05/18 07:07:11;;;;;;;0.00;0.00;;;;;;;;;;5076812;28;20031;-83
2023/05/18 07:09:37;;;;;;;0.00;0.00;;;;;;;;;;5071339;28;20067;-82
2023/05/18 07:12:02;;;;;;;0.00;0.00;;;;;;;;;;5073448;28;20777;-83
2023/05/18 07:14:28;;;;;;;0.00;0.00;;;;;;;;;;5072185;28;20031;-83
2023/05/18 07:16:53;;;;;;;0.03;0.03;;;;;;;;;;5077921;28;20017;-83
2023/05/18 07:19:18;;;;;;;0.00;0.00;;;;;;;;;;5076571;28;20736;-83
2023/05/18 07:21:44;;;;;;;0.00;0.00;;;;;;;;;;5077590;28;20032;-83
2023/05/18 07:24:09;;;;;;;0.00;0.00;;;;;;;;;;5080115;28;20031;-83
2023/05/18 07:26:34;;;;;;;0.00;0.00;;;;;;;;;;5070356;28;20043;-84
2023/05/18 07:29:00;;;;;;;0.00;0.00;;;;;;;;;;5082815;28;20472;-81
2023/05/18 07:31:26;;;;;;;0.00;0.00;;;;;;;;;;5083643;28;20020;-82
2023/05/18 07:33:51;;;;;;;0.00;0.00;;;;;;;;;;5081320;28;20024;-82
2023/05/18 07:36:17;;;;;;;0.00;0.00;;;;;;;;;;5073943;28;20028;-83
2023/05/18 07:38:42;;;;;;;0.00;0.00;;;;;;;;;;5112888;27;20024;-83
2023/05/18 07:41:08;;;;;;;0.00;0.00;;;;;;;;;;5082513;28;20054;-83
2023/05/18 07:43:34;;;;;;;0.10;0.10;;;;;;;;;;5085547;28;20085;-82
2023/05/18 07:46:00;;;;;;;0.00;0.00;;;;;;;;;;5079723;28;20031;-82
2023/05/18 07:48:26;;;;;;;0.00;0.00;;;;;;;;;;5080606;28;20110;-82
2023/05/18 07:50:51;;;;;;;0.00;0.00;;;;;;;;;;5079240;28;20452;-82
2023/05/18 07:53:17;;;;;;;0.10;0.10;;;;;;;;;;5080020;28;20036;-84
2023/05/18 07:55:42;;;;;;;0.10;0.10;;;;;;;;;;5080747;28;20025;-87
2023/05/18 07:58:08;;;;;;;0.00;0.00;;;;;;;;;;5074117;28;20492;-83
2023/05/18 08:00:34;;;;;;;0.15;0.15;;;;;;;;;;5072430;28;20039;-84
2023/05/18 08:02:59;;;;;;;0.00;0.00;;;;;;;;;;5083444;28;20036;-83
2023/05/18 08:05:25;;;;;;;0.00;0.00;;;;;;;;;;5078202;28;20036;-83
2023/05/18 08:07:51;;;;;;;0.10;0.10;;;;;;;;;;5076118;28;20024;-83
2023/05/18 08:10:17;;;;;;;0.00;0.00;;;;;;;;;;5075689;28;20020;-84
2023/05/18 08:12:42;;;;;;;0.00;0.00;;;;;;;;;;5075796;28;20027;-83
2023/05/18 08:15:08;;;;;;;0.10;0.10;;;;;;;;;;5074110;28;20529;-84
2023/05/18 08:17:33;;;;;;;0.10;0.10;;;;;;;;;;5081154;28;20036;-83
2023/05/18 08:19:59;;;;;;;0.00;0.00;;;;;;;;;;5087336;28;20419;-83
2023/05/18 08:22:24;;;;;;;0.00;0.00;;;;;;;;;;5074612;28;20119;-82
2023/05/18 08:24:50;;;;;;;0.00;0.00;;;;;;;;;;5074748;28;20380;-82
2023/05/18 08:27:16;;;;;;;0.00;0.00;;;;;;;;;;5078042;28;20028;-81
2023/05/18 08:29:41;;;;;;;0.05;0.05;;;;;;;;;;5082487;28;20431;-84
2023/05/18 08:32:07;;;;;;;0.00;0.00;;;;;;;;;;5083968;28;20024;-85
2023/05/18 08:34:37;;;;;;;0.00;0.00;;;;;;;;;;5077169;28;20063;-85
2023/05/18 08:37:03;;;;;;;0.00;0.00;;;;;;;;;;5078135;28;20016;-85
2023/05/18 08:39:31;;;;;;;0.00;0.00;;;;;;;;;;5082038;28;20048;-84
2023/05/18 08:42:09;;;;;;;0.40;0.13;;;;;;;;;;5076642;28;20020;-84
2023/05/18 08:44:55;;;;;;;0.90;0.43;;;;;;;;;;5071165;28;20033;-85
2023/05/18 08:47:25;;;;;;;0.00;0.00;;;;;;;;;;5077278;28;20104;-86
2023/05/18 08:49:51;;;;;;;0.00;0.00;;;;;;;;;;5107568;28;20051;-82
2023/05/18 08:52:25;;;;;;;0.00;0.00;;;;;;;;;;5080166;28;20534;-85
2023/05/18 08:54:52;;;;;;;0.00;0.00;;;;;;;;;;5079679;28;21151;-84
2023/05/18 08:57:23;;;;;;;0.00;0.00;;;;;;;;;;5070554;28;20031;-82
2023/05/18 08:59:54;;;;;;;0.00;0.00;;;;;;;;;;5074865;28;20024;-84
2023/05/18 09:02:20;;;;;;;0.10;0.10;;;;;;;;;;5080061;28;20107;-84
2023/05/18 09:04:47;;;;;;;0.00;0.00;;;;;;;;;;5077588;28;20119;-86
2023/05/18 09:07:14;;;;;;;0.10;0.10;;;;;;;;;;5076441;28;20038;-84
2023/05/18 09:10:03;;;;;;;0.00;0.00;;;;;;;;;;5076098;28;20028;-86
2023/05/18 09:12:30;;;;;;;0.00;0.00;;;;;;;;;;5077619;28;20028;-86
2023/05/18 09:14:58;;;;;;;0.00;0.00;;;;;;;;;;5077336;28;20029;-84
2023/05/18 09:17:24;;;;;;;0.00;0.00;;;;;;;;;;5079852;28;20023;-85
2023/05/18 09:19:52;;;;;;;0.00;0.00;;;;;;;;;;5079370;28;20446;-84
2023/05/18 09:22:17;;;;;;;0.00;0.00;;;;;;;;;;5083024;28;20035;-80
2023/05/18 09:24:43;;;;;;;0.00;0.00;;;;;;;;;;5080877;28;20103;-81
2023/05/18 09:27:09;;;;;;;0.00;0.00;;;;;;;;;;5075392;28;20031;-82
2023/05/18 09:29:35;;;;;;;0.00;0.00;;;;;;;;;;5075701;28;20067;-82
2023/05/18 09:32:09;;;;;;;0.00;0.00;;;;;;;;;;5079088;28;20464;-82
2023/05/18 09:34:40;;;;;;;0.00;0.00;;;;;;;;;;5070958;28;20372;-82
2023/05/18 09:37:05;;;;;;;0.00;0.00;;;;;;;;;;5079978;28;20035;-81
2023/05/18 09:39:31;;;;;;;0.00;0.00;;;;;;;;;;5076522;28;20041;-85
2023/05/18 09:41:57;;;;;;;0.00;0.00;;;;;;;;;;5079359;28;20154;-82
2023/05/18 09:44:44;;;;;;;0.00;0.00;;;;;;;;;;5081600;28;20028;-82
2023/05/18 09:47:10;;;;;;;0.52;0.52;;;;;;;;;;5079883;28;20476;-84
2023/05/18 09:49:36;;;;;;;0.00;0.00;;;;;;;;;;5080625;28;20020;-84
2023/05/18 09:52:05;;;;;;;0.00;0.00;;;;;;;;;;5079834;28;20108;-83
2023/05/18 09:54:31;;;;;;;0.10;0.10;;;;;;;;;;5079348;28;20032;-83
2023/05/18 09:56:57;;;;;;;0.00;0.00;;;;;;;;;;5081607;28;20051;-87
2023/05/18 09:59:23;;;;;;;0.00;0.00;;;;;;;;;;5081930;28;20117;-87
2023/05/18 10:01:55;;;;;;;0.00;0.00;;;;;;;;;;5078345;28;20376;-87
2023/05/18 10:04:20;;;;;;;0.00;0.00;;;;;;;;;;5077704;28;20035;-85
2023/05/18 10:06:53;;;;;;;0.00;0.00;;;;;;;;;;5077629;28;20040;-88
2023/05/18 10:09:18;;;;;;;0.00;0.00;;;;;;;;;;5118267;27;20028;-83
2023/05/18 10:11:43;;;;;;;0.00;0.00;;;;;;;;;;5079190;28;20383;-82
2023/05/18 10:14:12;;;;;;;0.20;0.10;;;;;;;;;;5080090;28;20572;-83
2023/05/18 10:16:40;;;;;;;0.10;0.10;;;;;;;;;;5076159;28;20089;-82
2023/05/18 10:19:07;;;;;;;0.00;0.00;;;;;;;;;;5079577;28;20028;-83
2023/05/18 10:21:36;;;;;;;0.00;0.00;;;;;;;;;;5079522;28;20397;-84
2023/05/18 10:24:04;;;;;;;0.00;0.00;;;;;;;;;;5086458;28;20028;-82
2023/05/18 10:26:37;;;;;;;0.10;0.10;;;;;;;;;;5083430;28;20464;-85
2023/05/18 10:29:03;;;;;;;0.22;0.22;;;;;;;;;;5084822;28;20032;-83
2023/05/18 10:31:29;;;;;;;0.10;0.10;;;;;;;;;;5084414;28;20032;-84
2023/05/18 10:33:57;;;;;;;0.10;0.10;;;;;;;;;;5080336;28;20024;-84
2023/05/18 10:36:24;;;;;;;0.30;0.30;;;;;;;;;;5080915;28;20029;-85
2023/05/18 10:38:50;;;;;;;0.20;0.20;;;;;;;;;;5081466;28;20060;-85
2023/05/18 10:41:20;;;;;;;0.10;0.10;;;;;;;;;;5077699;28;20020;-83
2023/05/18 10:43:47;;;;;;;0.00;0.00;;;;;;;;;;5077242;28;20028;-82
2023/05/18 10:46:14;;;;;;;0.10;0.10;;;;;;;;;;5084362;28;20040;-82
2023/05/18 10:48:43;;;;;;;0.00;0.00;;;;;;;;;;5081470;28;20039;-83
2023/05/18 10:51:09;;;;;;;0.30;0.30;;;;;;;;;;5077250;28;20031;-85
2023/05/18 10:53:35;;;;;;;0.00;0.00;;;;;;;;;;5077231;28;20067;-84
2023/05/18 10:56:01;;;;;;;0.22;0.22;;;;;;;;;;5081199;28;20040;-84
2023/05/18 10:58:29;;;;;;;0.10;0.10;;;;;;;;;;5078489;28;20480;-82
2023/05/18 11:00:57;;;;;;;0.05;0.05;;;;;;;;;;5086554;28;20028;-84
2023/05/18 11:03:24;;;;;;;0.35;0.22;;;;;;;;;;5079865;28;20112;-81
2023/05/18 11:06:02;;;;;;;0.00;0.00;;;;;;;;;;5084224;28;20028;-83
2023/05/18 11:08:28;;;;;;;0.00;0.00;;;;;;;;;;5075166;28;20039;-82
2023/05/18 11:11:06;;;;;;;0.45;0.43;;;;;;;;;;5079603;28;20545;-84
2023/05/18 11:13:33;;;;;;;0.05;0.05;;;;;;;;;;5082347;28;20021;-84
2023/05/18 11:15:58;;;;;;;0.00;0.00;;;;;;;;;;5083752;28;20025;-80
2023/05/18 11:18:33;;;;;;;0.15;0.15;;;;;;;;;;5078227;28;20062;-83
2023/05/18 11:21:00;;;;;;;0.00;0.00;;;;;;;;;;5081666;28;20471;-85
2023/05/18 11:23:30;;;;;;;0.10;0.10;;;;;;;;;;5079295;28;20020;-85
2023/05/18 11:26:01;;;;;;;0.00;0.00;;;;;;;;;;5077341;28;20534;-82
2023/05/18 11:28:27;;;;;;;0.00;0.00;;;;;;;;;;5072998;28;20025;-81
2023/05/18 11:30:53;;;;;;;0.00;0.00;;;;;;;;;;5084361;28;20039;-80
2023/05/18 11:33:23;;;;;;;0.00;0.00;;;;;;;;;;5078188;28;20036;-82
2023/05/18 11:36:12;;;;;;;0.10;0.10;;;;;;;;;;5073959;28;20067;-81
2023/05/18 11:38:51;;;;;;;0.00;0.00;;;;;;;;;;5072886;28;20036;-80
2023/05/18 11:41:31;;;;;;;0.00;0.00;;;;;;;;;;5075318;28;20040;-81
2023/05/18 11:44:19;;;;;;;0.05;0.05;;;;;;;;;;5070088;28;20282;-80
2023/05/18 11:46:57;;;;;;;0.10;0.10;;;;;;;;;;5071510;28;20035;-79
2023/05/18 11:49:48;;;;;;;0.45;0.45;;;;;;;;;;5076346;28;20028;-79
2023/05/18 11:52:21;;;;;;;0.00;0.00;;;;;;;;;;5070707;28;20021;-80
2023/05/18 11:54:59;;;;;;;0.10;0.10;;;;;;;;;;5073672;28;20474;-78
2023/05/18 11:57:33;;;;;;;0.00;0.00;;;;;;;;;;5071706;28;20103;-79
2023/05/18 12:00:01;;;;;;;0.03;0.03;;;;;;;;;;5080336;28;20473;-82
2023/05/18 12:02:30;;;;;;;0.00;0.00;;;;;;;;;;5084125;28;20468;-82
2023/05/18 12:04:59;;;;;;;0.00;0.00;;;;;;;;;;5075931;28;21882;-82
2023/05/18 12:07:27;;;;;;;0.00;0.00;;;;;;;;;;5086214;28;20081;-82
2023/05/18 12:10:00;;;;;;;0.43;0.43;;;;;;;;;;5085841;28;20020;-81
2023/05/18 12:12:26;;;;;;;0.00;0.00;;;;;;;;;;5075105;28;20020;-84
2023/05/18 12:14:56;;;;;;;0.00;0.00;;;;;;;;;;5078061;28;20052;-82
2023/05/18 12:17:23;;;;;;;0.00;0.00;;;;;;;;;;5082025;28;20060;-82
2023/05/18 12:19:49;;;;;;;0.43;0.17;;;;;;;;;;5077779;28;20025;-81
2023/05/18 12:22:15;;;;;;;0.00;0.00;;;;;;;;;;5077921;28;20081;-81
2023/05/18 12:24:42;;;;;;;0.00;0.00;;;;;;;;;;5078178;28;20032;-83
2023/05/18 12:27:10;;;;;;;0.03;0.03;;;;;;;;;;5078243;28;20032;-82
2023/05/18 12:29:39;;;;;;;0.00;0.00;;;;;;;;;;5071285;28;20025;-83
2023/05/18 12:32:09;;;;;;;0.20;0.20;;;;;;;;;;5071221;28;20051;-83
2023/05/18 12:34:35;;;;;;;0.00;0.00;;;;;;;;;;5074130;28;20039;-83
2023/05/18 12:37:01;;;;;;;0.00;0.00;;;;;;;;;;5075100;28;20364;-84
2023/05/18 12:39:26;;;;;;;0.00;0.00;;;;;;;;;;5076076;28;20060;-86
2023/05/18 12:41:52;;;;;;;0.00;0.00;;;;;;;;;;5080868;28;20032;-86
2023/05/18 12:44:17;;;;;;;0.00;0.00;;;;;;;;;;5078758;28;20487;-84
2023/05/18 12:46:43;;;;;;;0.00;0.00;;;;;;;;;;5082460;28;20844;-82
2023/05/18 12:49:08;;;;;;;0.00;0.00;;;;;;;;;;5080040;28;20480;-82
2023/05/18 12:51:35;;;;;;;0.10;0.10;;;;;;;;;;5083026;28;20029;-82
2023/05/18 12:54:02;;;;;;;0.00;0.00;;;;;;;;;;5085835;28;20032;-82
2023/05/18 12:56:50;;;;;;;0.00;0.00;;;;;;;;;;5080341;28;20039;-83
2023/05/18 12:59:18;;;;;;;0.10;0.10;;;;;;;;;;5083851;28;20392;-83
2023/05/18 13:01:44;;;;;;;0.05;0.05;;;;;;;;;;5083636;28;20025;-83
2023/05/18 13:04:10;;;;;;;0.00;0.00;;;;;;;;;;5076395;28;20069;-84
2023/05/18 13:06:39;;;;;;;0.00;0.00;;;;;;;;;;5073614;28;20032;-83
2023/05/18 13:09:12;;;;;;;0.00;0.00;;;;;;;;;;5080795;28;20093;-83
2023/05/18 13:11:38;;;;;;;0.00;0.00;;;;;;;;;;5079737;28;20464;-83
2023/05/18 13:14:05;;;;;;;0.43;0.43;;;;;;;;;;5077608;28;20039;-82
2023/05/18 13:16:33;;;;;;;0.00;0.00;;;;;;;;;;5079905;28;20028;-83
2023/05/18 13:19:06;;;;;;;0.05;0.05;;;;;;;;;;5081715;28;20019;-81
2023/05/18 13:21:33;;;;;;;0.00;0.00;;;;;;;;;;5077775;28;20035;-81
2023/05/18 13:23:59;;;;;;;0.00;0.00;;;;;;;;;;5084174;28;20016;-80
2023/05/18 13:26:25;;;;;;;0.20;0.20;;;;;;;;;;5079206;28;20426;-81
2023/05/18 13:28:53;;;;;;;0.00;0.00;;;;;;;;;;5085077;28;20028;-81
2023/05/18 13:31:19;;;;;;;0.00;0.00;;;;;;;;;;5083229;28;20120;-81
2023/05/18 13:33:45;;;;;;;0.00;0.00;;;;;;;;;;5074143;28;20036;-81
2023/05/18 13:36:11;;;;;;;0.00;0.00;;;;;;;;;;5079750;28;20070;-81
2023/05/18 13:38:37;;;;;;;0.00;0.00;;;;;;;;;;5084205;28;20051;-82
2023/05/18 13:41:03;;;;;;;0.00;0.00;;;;;;;;;;5078057;28;20041;-83
2023/05/18 13:43:29;;;;;;;0.00;0.00;;;;;;;;;;5080659;28;20039;-82
2023/05/18 13:45:55;;;;;;;0.00;0.00;;;;;;;;;;5075924;28;20036;-83
2023/05/18 13:48:20;;;;;;;0.00;0.00;;;;;;;;;;5072269;28;20073;-82
2023/05/18 13:50:46;;;;;;;0.00;0.00;;;;;;;;;;5074747;28;20031;-87
2023/05/18 13:53:11;;;;;;;0.00;0.00;;;;;;;;;;5077156;28;20497;-86
2023/05/18 13:55:37;;;;;;;0.30;0.30;;;;;;;;;;5076550;28;20071;-84
2023/05/18 13:58:02;;;;;;;0.00;0.00;;;;;;;;;;5079635;28;20028;-83
2023/05/18 14:00:28;;;;;;;0.00;0.00;;;;;;;;;;5077483;28;20063;-83
2023/05/18 14:02:53;;;;;;;0.30;0.30;;;;;;;;;;5076609;28;20032;-83
2023/05/18 14:05:22;;;;;;;0.00;0.00;;;;;;;;;;5073018;28;20047;-83
2023/05/18 14:07:47;;;;;;;0.10;0.10;;;;;;;;;;5082601;28;20020;-82
2023/05/18 14:10:13;;;;;;;0.00;0.00;;;;;;;;;;5083093;28;20071;-84
2023/05/18 14:12:41;;;;;;;0.00;0.00;;;;;;;;;;5076509;28;20024;-84
2023/05/18 14:15:07;;;;;;;0.00;0.00;;;;;;;;;;5076461;28;20020;-83
2023/05/18 14:17:33;;;;;;;0.00;0.00;;;;;;;;;;5076395;28;20052;-84
2023/05/18 14:19:59;;;;;;;0.00;0.00;;;;;;;;;;5076811;28;20077;-86
2023/05/18 14:22:30;;;;;;;0.15;0.15;;;;;;;;;;5078325;28;20028;-86
2023/05/18 14:24:58;;;;;;;0.00;0.00;;;;;;;;;;5081503;28;20098;-86
2023/05/18 14:27:23;;;;;;;0.20;0.20;;;;;;;;;;5073757;28;20024;-88
2023/05/18 14:30:00;;;;;;;0.13;0.13;;;;;;;;;;5108049;27;20395;-84
2023/05/18 14:32:25;;;;;;;0.00;0.00;;;;;;;;;;5081477;28;20115;-84
2023/05/18 14:34:54;;;;;;;0.00;0.00;;;;;;;;;;5109243;27;20115;-85
2023/05/18 14:37:19;;;;;;;0.00;0.00;;;;;;;;;;5085568;28;20414;-84
2023/05/18 14:39:45;;;;;;;0.20;0.20;;;;;;;;;;5077197;28;20044;-85
2023/05/18 14:42:10;;;;;;;0.00;0.00;;;;;;;;;;5074588;28;20055;-84
2023/05/18 14:44:35;;;;;;;0.00;0.00;;;;;;;;;;5077367;28;20112;-84
2023/05/18 14:47:01;;;;;;;0.00;0.00;;;;;;;;;;5081713;28;20028;-82